Time;durP1;ratioP1;P1;durP2;ratioP2;P2;SDS_P1;SDS_P2;PMS_P1;PMS_P2;Temp;Humidity;BMP_temperature;BMP_pressure;BME280_temperature;BME280_humidity;BME280_pressure;Samples;Min_cycle;Max_cycle;Signal;HPM_P1;HPM_P2
2023/12/19 00:02:31;;;;;;;31.10;13.85;;;;;;;6.51;100.00;101993.94;6253570;28;20599;-76
2023/12/19 00:05:32;;;;;;;31.35;13.57;;;;;;;6.44;100.00;101987.06;6253266;28;20045;-77
2023/12/19 00:08:35;;;;;;;35.00;13.57;;;;;;;6.43;100.00;101989.72;6253386;28;20327;-79
2023/12/19 00:11:36;;;;;;;29.48;13.15;;;;;;;6.54;100.00;101983.44;6253240;28;20065;-75
2023/12/19 00:14:37;;;;;;;34.40;14.07;;;;;;;6.34;100.00;101975.06;6253236;28;20445;-78
2023/12/19 00:17:40;;;;;;;34.17;13.88;;;;;;;6.42;100.00;101990.63;6252668;28;20132;-76
2023/12/19 00:20:41;;;;;;;38.17;14.60;;;;;;;6.38;100.00;101984.56;6269909;28;20099;-76
2023/12/19 00:23:44;;;;;;;34.10;14.25;;;;;;;6.38;100.00;102002.84;6276951;28;20174;-76
2023/12/19 00:26:45;;;;;;;34.45;13.13;;;;;;;6.44;100.00;102013.19;6278221;28;20049;-76
2023/12/19 00:29:46;;;;;;;30.75;13.20;;;;;;;6.33;100.00;102002.91;6278086;28;20056;-76
2023/12/19 00:32:48;;;;;;;27.65;13.55;;;;;;;6.26;100.00;101992.59;6277221;28;20055;-77
2023/12/19 00:35:49;;;;;;;36.17;13.15;;;;;;;6.21;100.00;101984.81;6277141;28;20060;-77
2023/12/19 00:38:52;;;;;;;38.58;14.75;;;;;;;6.25;100.00;102011.75;6277586;28;20056;-76
2023/12/19 00:41:53;;;;;;;42.72;14.68;;;;;;;6.27;100.00;101968.22;6276147;28;20049;-76
2023/12/19 00:44:54;;;;;;;35.63;14.52;;;;;;;6.25;100.00;101970.84;6276315;28;20056;-76
2023/12/19 00:47:56;;;;;;;36.05;14.00;;;;;;;6.22;100.00;101986.56;6277613;28;20361;-79
2023/12/19 00:50:57;;;;;;;36.35;14.30;;;;;;;6.18;100.00;101981.44;6277337;28;20060;-77
2023/12/19 00:53:59;;;;;;;34.53;14.50;;;;;;;6.12;100.00;101987.56;6276399;28;20431;-77
2023/12/19 00:57:01;;;;;;;36.22;13.77;;;;;;;6.14;100.00;101991.03;6277400;28;20049;-76
2023/12/19 01:00:03;;;;;;;36.65;14.45;;;;;;;6.15;100.00;101981.47;6277187;28;20466;-77
2023/12/19 01:03:04;;;;;;;35.83;12.40;;;;;;;6.14;100.00;101982.34;6276716;28;20128;-78
2023/12/19 01:06:06;;;;;;;35.80;14.68;;;;;;;6.15;100.00;101984.06;6276114;28;20049;-76
2023/12/19 01:09:10;;;;;;;30.80;12.65;;;;;;;6.21;100.00;101977.00;6277114;28;20057;-77
2023/12/19 01:12:12;;;;;;;29.73;12.77;;;;;;;6.26;100.00;101963.88;6276633;28;20041;-76
2023/12/19 01:15:14;;;;;;;31.38;12.82;;;;;;;6.24;100.00;101953.47;6276480;28;20051;-76
2023/12/19 01:18:15;;;;;;;31.92;12.68;;;;;;;6.25;100.00;101963.00;6276791;28;20341;-77
2023/12/19 01:21:16;;;;;;;32.33;14.00;;;;;;;6.29;100.00;101964.69;6276758;28;20053;-77
2023/12/19 01:24:19;;;;;;;31.52;13.35;;;;;;;6.29;100.00;101953.41;6276055;28;20045;-77
2023/12/19 01:27:21;;;;;;;34.35;14.05;;;;;;;6.14;100.00;101948.44;6276776;28;20060;-77
2023/12/19 01:30:22;;;;;;;37.60;14.00;;;;;;;6.15;100.00;101950.16;6276417;28;20056;-79
2023/12/19 01:33:23;;;;;;;31.00;13.00;;;;;;;6.15;100.00;101957.97;6276243;28;20053;-78
2023/12/19 01:36:25;;;;;;;33.13;13.57;;;;;;;6.23;100.00;101958.72;6275981;28;20053;-78
2023/12/19 01:39:28;;;;;;;27.40;12.80;;;;;;;6.14;100.00;101946.69;6276165;28;20094;-76
2023/12/19 01:42:29;;;;;;;38.05;13.35;;;;;;;6.07;100.00;101951.09;6276048;28;20049;-78
2023/12/19 01:45:31;;;;;;;28.55;12.13;;;;;;;6.05;100.00;101941.59;6275595;28;20059;-77
2023/12/19 01:48:33;;;;;;;28.80;12.18;;;;;;;6.06;100.00;101930.28;6276205;28;20044;-77
2023/12/19 01:51:34;;;;;;;28.48;12.77;;;;;;;6.15;100.00;101935.34;6275851;28;20049;-77
2023/12/19 01:54:37;;;;;;;35.20;14.35;;;;;;;6.14;100.00;101917.97;6275201;28;20068;-77
2023/12/19 01:57:39;;;;;;;24.25;11.27;;;;;;;6.18;100.00;101916.19;6275907;28;20048;-76
2023/12/19 02:00:40;;;;;;;30.55;13.10;;;;;;;6.20;100.00;101919.59;6275488;28;20388;-77
2023/12/19 02:03:42;;;;;;;30.33;13.07;;;;;;;6.23;100.00;101917.81;6274935;28;20041;-77
2023/12/19 02:06:44;;;;;;;28.33;13.18;;;;;;;6.25;100.00;101921.25;6275342;28;20071;-77
2023/12/19 02:09:46;;;;;;;24.08;12.10;;;;;;;6.25;100.00;101909.94;6275536;28;20071;-77
2023/12/19 02:12:48;;;;;;;31.00;12.70;;;;;;;6.24;100.00;101893.44;6275168;28;20045;-77
2023/12/19 02:15:49;;;;;;;32.20;12.55;;;;;;;6.26;100.00;101896.00;6263070;28;20052;-77
2023/12/19 02:19:04;;;;;;;29.73;13.38;;;;;;;6.24;100.00;101893.44;6259157;28;20053;-77
2023/12/19 02:22:05;;;;;;;28.38;12.55;;;;;;;6.21;100.00;101897.84;6270665;28;20060;-77
2023/12/19 02:25:09;;;;;;;32.95;13.93;;;;;;;6.26;100.00;101901.22;6269532;28;20123;-77
2023/12/19 02:28:10;;;;;;;33.78;13.27;;;;;;;6.26;100.00;101904.69;6271363;28;20392;-77
2023/12/19 02:31:12;;;;;;;28.38;13.38;;;;;;;6.28;100.00;101884.66;6275080;28;20059;-77
2023/12/19 02:34:13;;;;;;;30.42;12.35;;;;;;;6.25;100.00;101884.69;6267860;28;20048;-77
2023/12/19 02:37:14;;;;;;;26.75;12.68;;;;;;;6.17;100.00;101888.31;6266638;28;20049;-76
2023/12/19 02:40:17;;;;;;;28.58;13.15;;;;;;;6.17;100.00;101893.56;6274792;28;20052;-77
2023/12/19 02:43:18;;;;;;;26.88;11.18;;;;;;;6.21;100.00;101895.22;6274918;28;20052;-77
2023/12/19 02:46:20;;;;;;;28.42;11.52;;;;;;;6.14;100.00;101891.88;6274911;28;20064;-77
2023/12/19 02:49:21;;;;;;;29.75;10.90;;;;;;;6.10;100.00;101896.28;6275173;28;20467;-76
2023/12/19 02:52:22;;;;;;;27.25;12.43;;;;;;;6.03;100.00;101876.38;6274648;28;20052;-77
2023/12/19 02:55:25;;;;;;;32.28;12.05;;;;;;;6.04;100.00;101867.69;6282280;22;20045;-71
2023/12/19 02:58:26;;;;;;;28.85;11.98;;;;;;;5.99;100.00;101866.00;6265872;28;20052;-71
2023/12/19 03:01:28;;;;;;;28.02;11.10;;;;;;;5.99;100.00;101853.81;6266353;28;20044;-71
2023/12/19 03:04:29;;;;;;;22.48;10.63;;;;;;;6.00;100.00;101850.34;6274433;28;20085;-71
2023/12/19 03:07:30;;;;;;;25.92;10.88;;;;;;;5.93;100.00;101848.72;6274458;28;20071;-70
2023/12/19 03:10:33;;;;;;;25.98;11.55;;;;;;;5.98;100.00;101851.25;6274821;28;20468;-70
2023/12/19 03:13:34;;;;;;;23.80;10.77;;;;;;;5.89;100.00;101839.19;6274753;28;20049;-71
2023/12/19 03:16:36;;;;;;;24.77;10.98;;;;;;;5.93;100.00;101837.41;6274409;28;20049;-70
2023/12/19 03:19:38;;;;;;;26.65;10.95;;;;;;;5.93;100.00;101838.28;6274604;28;20179;-70
2023/12/19 03:22:39;;;;;;;24.52;11.20;;;;;;;5.95;100.00;101833.03;6274545;28;20049;-70
2023/12/19 03:25:42;;;;;;;23.65;10.23;;;;;;;5.97;100.00;101841.69;6274058;28;20053;-69
2023/12/19 03:28:43;;;;;;;25.48;10.40;;;;;;;5.91;100.00;101815.69;6274760;28;20140;-70
2023/12/19 03:31:45;;;;;;;24.70;10.80;;;;;;;5.91;100.00;101807.88;6274410;28;20060;-70
2023/12/19 03:34:46;;;;;;;24.77;10.55;;;;;;;5.93;100.00;101788.72;6273946;28;20045;-70
2023/12/19 03:37:47;;;;;;;22.90;10.73;;;;;;;5.93;100.00;101774.81;6274236;28;20469;-70
2023/12/19 03:40:50;;;;;;;23.30;10.40;;;;;;;5.94;100.00;101785.19;6274685;28;20060;-70
2023/12/19 03:43:51;;;;;;;24.60;10.82;;;;;;;5.92;100.00;101784.38;6273673;28;20060;-70
2023/12/19 03:46:53;;;;;;;27.48;11.00;;;;;;;5.96;100.00;101778.22;6274363;28;20373;-70
2023/12/19 03:49:54;;;;;;;27.92;11.82;;;;;;;5.90;100.00;101767.84;6274489;28;20057;-70
2023/12/19 03:52:55;;;;;;;20.38;10.48;;;;;;;5.92;100.00;101758.28;6267182;28;20350;-70
2023/12/19 03:55:58;;;;;;;26.13;11.18;;;;;;;5.90;100.00;101760.03;6253105;28;20052;-70
2023/12/19 03:58:59;;;;;;;28.30;10.38;;;;;;;5.90;100.00;101764.38;6253875;28;20060;-70
2023/12/19 04:02:01;;;;;;;26.65;11.02;;;;;;;5.87;100.00;101774.88;6253400;28;20056;-70
2023/12/19 04:05:03;;;;;;;21.92;10.68;;;;;;;5.84;100.00;101779.25;6252702;28;20350;-73
2023/12/19 04:08:05;;;;;;;22.00;10.18;;;;;;;5.89;100.00;101765.28;6252706;28;20079;-70
2023/12/19 04:11:07;;;;;;;26.17;11.40;;;;;;;5.95;100.00;101757.38;6253762;28;20060;-70
2023/12/19 04:14:09;;;;;;;27.55;12.40;;;;;;;5.96;100.00;101749.53;6255671;28;20052;-70
2023/12/19 04:17:10;;;;;;;25.15;10.15;;;;;;;5.94;100.00;101742.59;6266192;28;20057;-70
2023/12/19 04:20:13;;;;;;;23.40;10.80;;;;;;;5.97;100.00;101750.38;6265321;28;20049;-70
2023/12/19 04:23:14;;;;;;;24.23;11.30;;;;;;;5.95;100.00;101754.75;6275144;28;20438;-70
2023/12/19 04:26:20;;;;;;;25.20;10.90;;;;;;;5.91;100.00;101746.13;6256184;28;20052;-70
2023/12/19 04:29:21;;;;;;;19.02;10.07;;;;;;;5.92;100.00;101755.69;6258610;28;20331;-70
2023/12/19 04:32:22;;;;;;;26.15;11.75;;;;;;;5.92;100.00;101745.25;6268971;28;20045;-70
2023/12/19 04:35:24;;;;;;;21.90;10.38;;;;;;;5.89;100.00;101745.25;6277460;28;20052;-70
2023/12/19 04:38:25;;;;;;;27.02;11.25;;;;;;;5.89;100.00;101732.22;6252637;28;20053;-70
2023/12/19 04:41:28;;;;;;;25.90;11.70;;;;;;;5.95;100.00;101733.88;6252334;28;20076;-70
2023/12/19 04:44:29;;;;;;;29.45;11.38;;;;;;;5.92;100.00;101723.53;6252526;28;20052;-70
2023/12/19 04:47:30;;;;;;;25.42;10.77;;;;;;;5.88;100.00;101722.69;6252559;28;20045;-69
2023/12/19 04:50:32;;;;;;;25.05;11.32;;;;;;;5.91;100.00;101709.59;6246948;28;20049;-70
2023/12/19 04:53:33;;;;;;;26.77;11.52;;;;;;;5.98;100.00;101710.34;6242315;28;20361;-70
2023/12/19 04:56:36;;;;;;;22.70;11.35;;;;;;;6.01;100.00;101710.31;6244164;28;20065;-70
2023/12/19 04:59:38;;;;;;;22.63;11.35;;;;;;;5.98;100.00;101716.44;6248969;28;20128;-70
2023/12/19 05:02:39;;;;;;;32.30;11.60;;;;;;;5.93;100.00;101701.75;6252394;28;20057;-70
2023/12/19 05:05:41;;;;;;;24.45;10.90;;;;;;;5.95;100.00;101713.00;6251483;28;20183;-69
2023/12/19 05:08:42;;;;;;;26.85;12.40;;;;;;;5.95;100.00;101703.47;6243297;28;20453;-70
2023/12/19 05:11:45;;;;;;;25.02;11.25;;;;;;;5.99;100.00;101702.50;6258394;28;20053;-70
2023/12/19 05:14:46;;;;;;;25.52;11.57;;;;;;;6.01;100.00;101692.03;6268742;28;20456;-70
2023/12/19 05:17:47;;;;;;;24.40;10.63;;;;;;;5.99;100.00;101685.97;6276934;28;20049;-70
2023/12/19 05:20:49;;;;;;;23.48;11.52;;;;;;;5.93;100.00;101658.25;6268075;28;20053;-70
2023/12/19 05:23:50;;;;;;;24.27;11.48;;;;;;;5.90;100.00;101639.16;6250671;28;20437;-68
2023/12/19 05:26:53;;;;;;;25.88;11.93;;;;;;;5.91;100.00;101646.13;6251976;28;20077;-69
2023/12/19 05:29:54;;;;;;;23.52;11.88;;;;;;;5.89;100.00;101638.31;6252057;28;20061;-70
2023/12/19 05:32:55;;;;;;;27.92;11.95;;;;;;;5.90;100.00;101628.72;6251419;28;20050;-70
2023/12/19 05:35:57;;;;;;;25.50;10.93;;;;;;;5.87;100.00;101629.66;6240733;28;20349;-70
2023/12/19 05:38:58;;;;;;;28.55;11.88;;;;;;;5.90;100.00;101642.63;6236964;28;20257;-70
2023/12/19 05:42:01;;;;;;;25.52;11.48;;;;;;;5.90;100.00;101647.00;6237812;28;20456;-69
2023/12/19 05:45:03;;;;;;;28.85;11.40;;;;;;;5.92;100.00;101647.88;6237140;28;20048;-69
2023/12/19 05:48:05;;;;;;;27.42;12.43;;;;;;;5.89;100.00;101656.56;6237333;28;20179;-69
2023/12/19 05:51:07;;;;;;;24.40;12.15;;;;;;;5.84;100.00;101666.25;6238152;28;20045;-70
2023/12/19 05:54:08;;;;;;;30.02;11.23;;;;;;;5.80;100.00;101661.97;6235681;28;20045;-69
2023/12/19 05:57:11;;;;;;;25.75;10.95;;;;;;;5.81;100.00;101648.03;6238534;28;20373;-69
2023/12/19 06:00:13;;;;;;;29.02;12.25;;;;;;;5.85;100.00;101644.47;6236200;28;20057;-69
2023/12/19 06:03:15;;;;;;;23.17;11.65;;;;;;;5.85;100.00;101645.31;6238536;28;20060;-69
2023/12/19 06:06:17;;;;;;;29.13;13.07;;;;;;;5.84;100.00;101648.84;6235824;28;20049;-69
2023/12/19 06:09:18;;;;;;;25.52;11.00;;;;;;;5.83;100.00;101634.06;6237659;28;20053;-69
2023/12/19 06:12:21;;;;;;;25.73;11.90;;;;;;;5.82;100.00;101644.56;6236608;28;20080;-69
2023/12/19 06:15:22;;;;;;;23.85;11.95;;;;;;;5.82;100.00;101639.34;6239699;28;20045;-69
2023/12/19 06:18:23;;;;;;;33.47;11.68;;;;;;;5.82;100.00;101641.94;6244048;28;20061;-69
2023/12/19 06:21:25;;;;;;;25.98;10.57;;;;;;;5.80;100.00;101646.31;6239433;28;20057;-69
2023/12/19 06:24:26;;;;;;;24.30;11.73;;;;;;;5.73;100.00;101644.72;6242327;28;20049;-69
2023/12/19 06:27:29;;;;;;;27.35;11.25;;;;;;;5.77;100.00;101646.41;6239210;28;20360;-69
2023/12/19 06:30:30;;;;;;;23.35;10.95;;;;;;;5.78;100.00;101656.78;6238414;28;20058;-69
2023/12/19 06:33:31;;;;;;;22.13;9.73;;;;;;;5.76;100.00;101658.53;6237652;28;20364;-69
2023/12/19 06:36:33;;;;;;;22.50;9.77;;;;;;;5.74;100.00;101654.25;6234767;28;20108;-69
2023/12/19 06:39:36;;;;;;;20.85;10.00;;;;;;;5.76;100.00;101660.31;6237751;28;20068;-69
2023/12/19 06:42:38;;;;;;;19.95;9.75;;;;;;;5.75;100.00;101649.00;6237007;28;20054;-69
2023/12/19 06:45:40;;;;;;;19.98;9.50;;;;;;;5.83;100.00;101635.84;6249916;28;20045;-69
2023/12/19 06:48:42;;;;;;;21.98;9.77;;;;;;;5.83;100.00;101638.44;6250625;28;20049;-69
2023/12/19 06:51:44;;;;;;;21.83;9.95;;;;;;;5.85;100.00;101629.69;6250205;28;20077;-69
2023/12/19 06:54:46;;;;;;;19.23;8.90;;;;;;;5.87;100.00;101634.03;6249869;28;20056;-69
2023/12/19 06:57:48;;;;;;;23.65;9.85;;;;;;;5.84;100.00;101629.72;6250744;28;20057;-70
2023/12/19 07:00:50;;;;;;;17.02;9.32;;;;;;;5.84;100.00;101627.97;6256908;28;20053;-69
2023/12/19 07:03:51;;;;;;;20.15;8.90;;;;;;;5.83;100.00;101631.47;6257573;28;20052;-70
2023/12/19 07:06:53;;;;;;;16.92;8.52;;;;;;;5.83;100.00;101633.22;6267420;28;20429;-69
2023/12/19 07:09:55;;;;;;;16.63;8.60;;;;;;;5.83;100.00;101623.66;6274862;28;20468;-69
2023/12/19 07:12:58;;;;;;;17.63;8.40;;;;;;;5.83;100.00;101628.88;6274552;28;20060;-69
2023/12/19 07:15:59;;;;;;;16.85;7.68;;;;;;;5.84;100.00;101627.97;6274206;28;20083;-69
2023/12/19 07:19:01;;;;;;;17.95;8.55;;;;;;;5.80;100.00;101618.47;6274653;28;20048;-69
2023/12/19 07:22:02;;;;;;;14.07;7.18;;;;;;;5.87;100.00;101610.56;6274639;28;20059;-70
2023/12/19 07:25:04;;;;;;;15.70;7.20;;;;;;;5.89;100.00;101604.41;6243346;28;20038;-69
2023/12/19 07:28:07;;;;;;;14.25;7.55;;;;;;;5.91;100.00;101596.56;6232551;28;20057;-69
2023/12/19 07:31:08;;;;;;;12.27;6.00;;;;;;;5.89;100.00;101591.34;6245005;28;20056;-69
2023/12/19 07:34:09;;;;;;;12.95;6.85;;;;;;;5.93;100.00;101577.41;6250491;28;20040;-69
2023/12/19 07:37:11;;;;;;;12.13;6.47;;;;;;;5.91;100.00;101568.72;6247754;28;20057;-69
2023/12/19 07:40:13;;;;;;;15.50;6.93;;;;;;;5.95;100.00;101572.13;6241649;28;20053;-69
2023/12/19 07:43:16;;;;;;;12.52;6.40;;;;;;;5.96;100.00;101564.28;6252185;28;20053;-69
2023/12/19 07:46:19;;;;;;;13.40;6.57;;;;;;;5.99;100.00;101566.81;6231247;28;20042;-69
2023/12/19 07:49:20;;;;;;;12.80;6.53;;;;;;;5.98;100.00;101567.72;6258326;28;20053;-69
2023/12/19 07:52:21;;;;;;;11.02;6.10;;;;;;;5.98;100.00;101561.66;6275310;28;20061;-69
2023/12/19 07:55:23;;;;;;;12.45;5.68;;;;;;;5.97;100.00;101552.97;6267670;28;20049;-69
2023/12/19 07:58:26;;;;;;;12.00;5.72;;;;;;;6.00;100.00;101534.66;6278782;28;20048;-69
2023/12/19 08:01:27;;;;;;;9.35;5.30;;;;;;;5.98;100.00;101539.03;6278516;28;20160;-70
2023/12/19 08:04:29;;;;;;;14.05;6.38;;;;;;;6.04;100.00;101538.03;6278191;28;20045;-69
2023/12/19 08:07:30;;;;;;;12.63;5.90;;;;;;;6.06;100.00;101529.28;6256892;28;20066;-68
2023/12/19 08:10:32;;;;;;;10.55;5.45;;;;;;;6.11;100.00;101537.00;6247453;28;20053;-70
2023/12/19 08:13:35;;;;;;;10.70;5.20;;;;;;;6.14;100.00;101531.72;6244757;28;20057;-69
2023/12/19 08:16:37;;;;;;;9.40;5.35;;;;;;;6.13;100.00;101521.31;6262926;28;20134;-70
2023/12/19 08:19:38;;;;;;;7.28;4.15;;;;;;;6.12;100.00;101517.00;6269065;28;20361;-69
2023/12/19 08:22:40;;;;;;;9.70;4.95;;;;;;;6.08;100.00;101519.66;6261675;28;20100;-70
2023/12/19 08:25:41;;;;;;;7.90;4.40;;;;;;;6.15;100.00;101517.78;6263465;28;20045;-71
2023/12/19 08:28:44;;;;;;;8.18;4.32;;;;;;;6.17;100.00;101517.75;6277707;28;20048;-70
2023/12/19 08:31:46;;;;;;;10.27;4.45;;;;;;;6.16;100.00;101500.38;6277703;28;20049;-70
2023/12/19 08:34:47;;;;;;;6.88;3.97;;;;;;;6.16;100.00;101500.38;6262842;28;20046;-70
2023/12/19 08:37:49;;;;;;;7.03;3.72;;;;;;;6.16;100.00;101505.59;6277024;28;20151;-70
2023/12/19 08:40:50;;;;;;;6.68;3.53;;;;;;;6.20;100.00;101517.69;6264244;28;20068;-72
2023/12/19 08:43:53;;;;;;;5.47;3.38;;;;;;;6.17;100.00;101502.94;6252256;28;20049;-70
2023/12/19 08:46:54;;;;;;;7.15;3.70;;;;;;;6.19;100.00;101515.97;6252416;28;20049;-70
2023/12/19 08:49:58;;;;;;;7.35;3.40;;;;;;;6.18;100.00;101504.69;6252836;28;20061;-70
2023/12/19 08:53:00;;;;;;;6.97;3.40;;;;;;;6.24;100.00;101507.13;6264913;28;20045;-70
2023/12/19 08:56:01;;;;;;;3.78;2.38;;;;;;;6.26;100.00;101505.34;6265238;28;20049;-69
2023/12/19 08:59:04;;;;;;;6.82;3.00;;;;;;;6.25;100.00;101495.78;6265667;28;20053;-69
2023/12/19 09:02:07;;;;;;;3.90;2.28;;;;;;;6.27;100.00;101506.22;6261373;28;20076;-70
2023/12/19 09:05:09;;;;;;;3.72;2.60;;;;;;;6.31;100.00;101490.44;6271361;28;20049;-70
2023/12/19 09:08:10;;;;;;;3.22;2.03;;;;;;;6.29;100.00;101507.03;6272922;28;20046;-69
2023/12/19 09:11:11;;;;;;;3.22;2.08;;;;;;;6.31;100.00;101492.16;6272007;28;20056;-68
2023/12/19 09:14:15;;;;;;;2.80;1.80;;;;;;;6.38;100.00;101493.75;6274173;28;20048;-69
2023/12/19 09:17:17;;;;;;;4.82;1.95;;;;;;;6.39;100.00;101490.25;6264223;28;20068;-70
2023/12/19 09:20:18;;;;;;;3.30;1.92;;;;;;;6.39;100.00;101485.03;6276715;28;20048;-69
2023/12/19 09:23:20;;;;;;;2.47;1.75;;;;;;;6.44;100.00;101495.34;6276547;28;20067;-72
2023/12/19 09:26:21;;;;;;;3.22;1.85;;;;;;;6.38;100.00;101488.53;6276086;28;20056;-70
2023/12/19 09:29:25;;;;;;;2.95;1.80;;;;;;;6.39;100.00;101490.25;6276624;28;20361;-69
2023/12/19 09:32:27;;;;;;;2.40;1.50;;;;;;;6.40;100.00;101462.38;6276249;28;20139;-73
2023/12/19 09:35:30;;;;;;;6.45;1.80;;;;;;;6.42;100.00;101466.69;6276102;28;20045;-71
2023/12/19 09:38:31;;;;;;;1.88;1.60;;;;;;;6.49;100.00;101456.94;6275940;28;20055;-69
2023/12/19 09:41:33;;;;;;;2.47;1.80;;;;;;;6.49;100.00;101460.41;6276281;28;20049;-71
2023/12/19 09:44:35;;;;;;;2.38;1.67;;;;;;;6.46;100.00;101460.50;6275509;28;20048;-70
2023/12/19 09:47:40;;;;;;;2.05;1.40;;;;;;;6.50;100.00;101454.31;6274876;28;20053;-71
2023/12/19 09:50:43;;;;;;;1.52;1.25;;;;;;;6.48;100.00;101458.69;6267726;28;20055;-70
2023/12/19 09:53:47;;;;;;;1.85;1.50;;;;;;;6.50;100.00;101449.09;6271556;28;20648;-70
2023/12/19 09:56:49;;;;;;;1.52;1.38;;;;;;;6.50;100.00;101451.69;6256782;28;20049;-70
2023/12/19 09:59:52;;;;;;;1.40;1.17;;;;;;;6.52;100.00;101439.44;6265950;28;20350;-71
2023/12/19 10:02:54;;;;;;;1.58;1.10;;;;;;;6.56;100.00;101435.00;6275749;28;20049;-71
2023/12/19 10:05:57;;;;;;;1.38;1.08;;;;;;;6.55;100.00;101430.69;6271038;28;20175;-71
2023/12/19 10:08:59;;;;;;;1.23;0.95;;;;;;;6.51;100.00;101423.81;6268845;28;20070;-70
2023/12/19 10:12:04;;;;;;;2.13;1.10;;;;;;;6.55;100.00;101415.88;6275411;28;20049;-70
2023/12/19 10:15:12;;;;;;;1.60;1.05;;;;;;;6.52;100.00;101405.50;6269570;28;20142;-69
2023/12/19 10:18:14;;;;;;;3.13;1.30;;;;;;;6.56;100.00;101406.28;6258892;28;20168;-70
2023/12/19 10:21:19;;;;;;;2.22;1.40;;;;;;;6.60;100.00;101394.84;6271057;28;20049;-70
2023/12/19 10:24:26;;;;;;;4.15;1.65;;;;;;;6.61;100.00;101388.72;6274844;28;20469;-70
2023/12/19 10:27:28;;;;;;;2.22;1.40;;;;;;;6.59;100.00;101393.16;6275600;28;20155;-70
2023/12/19 10:30:31;;;;;;;1.23;1.13;;;;;;;6.52;100.00;101368.94;6275247;28;20460;-69
2023/12/19 10:33:40;;;;;;;2.10;1.30;;;;;;;6.55;100.00;101388.91;6275243;28;20044;-69
2023/12/19 10:36:41;;;;;;;1.85;1.33;;;;;;;6.59;100.00;101369.66;6274956;28;20055;-70
2023/12/19 10:39:43;;;;;;;1.95;1.50;;;;;;;6.61;100.00;101370.44;6275377;28;20163;-70
2023/12/19 10:42:54;;;;;;;2.35;1.52;;;;;;;6.64;100.00;101356.47;6269740;28;20052;-70
2023/12/19 10:45:57;;;;;;;2.60;1.38;;;;;;;6.57;100.00;101345.31;6260186;28;20361;-70
2023/12/19 10:49:01;;;;;;;3.08;1.70;;;;;;;6.58;100.00;101341.81;6275208;28;20476;-69
2023/12/19 10:52:06;;;;;;;2.63;1.77;;;;;;;6.65;100.00;101348.59;6265281;28;20052;-70
2023/12/19 10:55:11;;;;;;;2.88;1.85;;;;;;;6.68;100.00;101342.44;6253410;28;20055;-69
2023/12/19 10:58:19;;;;;;;2.00;1.50;;;;;;;6.69;100.00;101347.59;6263466;28;20045;-70
2023/12/19 11:01:25;;;;;;;2.10;1.67;;;;;;;6.70;100.00;101341.47;6259728;28;20053;-70
2023/12/19 11:04:31;;;;;;;2.55;2.03;;;;;;;6.69;100.00;101323.25;6263866;28;20049;-70
2023/12/19 11:07:33;;;;;;;3.67;2.00;;;;;;;6.71;100.00;101306.63;6270988;28;20120;-71
2023/12/19 11:10:39;;;;;;;4.75;3.08;;;;;;;6.70;100.00;101304.91;6271334;28;20131;-70
2023/12/19 11:13:42;;;;;;;4.75;3.10;;;;;;;6.78;100.00;101304.69;6279270;28;20480;-71
2023/12/19 11:16:50;;;;;;;4.78;2.58;;;;;;;6.78;100.00;101310.78;6260416;28;20096;-69
2023/12/19 11:19:57;;;;;;;6.47;2.90;;;;;;;6.71;100.00;101303.16;6255028;28;20060;-72
2023/12/19 11:23:10;;;;;;;5.47;3.38;;;;;;;6.73;100.00;101299.59;6262564;28;20053;-71
2023/12/19 11:26:16;;;;;;;6.55;3.70;;;;;;;6.74;100.00;101290.88;6273824;28;20422;-72
2023/12/19 11:29:44;;;;;;;8.27;4.05;;;;;;;6.79;100.00;101280.28;6279451;28;20079;-71
2023/12/19 11:32:48;;;;;;;8.95;4.43;;;;;;;6.75;100.00;101284.72;6279176;28;20049;-69
2023/12/19 11:35:49;;;;;;;8.98;4.95;;;;;;;6.76;100.00;101293.44;6278941;28;20064;-69
2023/12/19 11:38:51;;;;;;;9.88;4.93;;;;;;;6.78;100.00;101286.41;6279059;28;20056;-69
2023/12/19 11:41:52;;;;;;;10.93;5.68;;;;;;;6.82;100.00;101281.06;6265422;28;20050;-70
2023/12/19 11:44:53;;;;;;;11.77;6.25;;;;;;;6.84;100.00;101278.38;6278602;28;20048;-69
2023/12/19 11:47:56;;;;;;;12.00;6.32;;;;;;;6.86;100.00;101281.84;6278842;28;20055;-69
2023/12/19 11:50:57;;;;;;;10.60;6.00;;;;;;;6.92;100.00;101270.34;6279164;28;20055;-69
2023/12/19 11:53:59;;;;;;;11.35;6.28;;;;;;;6.96;100.00;101267.59;6262757;28;20057;-69
2023/12/19 11:57:03;;;;;;;12.70;6.03;;;;;;;6.89;100.00;101258.19;6268850;28;20052;-69
2023/12/19 12:00:06;;;;;;;13.35;5.55;;;;;;;6.93;100.00;101257.22;6262125;28;20095;-69
2023/12/19 12:03:09;;;;;;;13.38;5.60;;;;;;;6.97;100.00;101252.75;6267840;28;20053;-70
2023/12/19 12:06:11;;;;;;;13.25;6.35;;;;;;;6.95;100.00;101241.47;6263728;28;20049;-70
2023/12/19 12:09:13;;;;;;;10.45;5.53;;;;;;;6.94;100.00;101231.94;6268920;28;20049;-69
2023/12/19 12:12:14;;;;;;;10.02;5.60;;;;;;;6.92;100.00;101224.16;6276894;28;20473;-70
2023/12/19 12:15:19;;;;;;;10.02;5.60;;;;;;;6.93;100.00;101236.31;6259425;28;20048;-71
2023/12/19 12:18:21;;;;;;;13.18;6.85;;;;;;;7.02;100.00;101222.97;6264450;28;20053;-69
2023/12/19 12:21:23;;;;;;;12.27;5.68;;;;;;;6.97;100.00;101218.78;6264895;28;20041;-69
2023/12/19 12:24:24;;;;;;;11.57;5.65;;;;;;;6.97;100.00;101222.25;6262588;28;20050;-70
2023/12/19 12:27:27;;;;;;;11.50;5.47;;;;;;;7.00;100.00;101218.72;6274736;28;20045;-69
2023/12/19 12:30:31;;;;;;;9.95;5.22;;;;;;;6.99;100.00;101210.00;6278077;28;20583;-69
2023/12/19 12:33:36;;;;;;;11.75;5.05;;;;;;;7.06;100.00;101208.91;6228373;28;20152;-69
2023/12/19 12:36:37;;;;;;;8.63;4.43;;;;;;;7.07;100.00;101214.97;6244274;28;20049;-69
2023/12/19 12:39:39;;;;;;;8.05;4.55;;;;;;;7.04;100.00;101197.66;6269295;28;20057;-69
2023/12/19 12:42:40;;;;;;;9.07;4.55;;;;;;;7.02;100.00;101191.63;6277743;28;20151;-69
2023/12/19 12:45:42;;;;;;;8.27;4.40;;;;;;;7.06;100.00;101185.38;6263133;28;20050;-68
2023/12/19 12:48:59;;;;;;;8.35;4.78;;;;;;;7.05;100.00;101186.28;6276469;28;20392;-69
2023/12/19 12:52:01;;;;;;;12.40;4.50;;;;;;;7.05;100.00;101175.84;6277115;28;20123;-72
2023/12/19 12:55:04;;;;;;;7.50;4.20;;;;;;;7.07;100.00;101170.56;6276746;28;20048;-68
2023/12/19 12:58:06;;;;;;;8.27;4.43;;;;;;;7.09;100.00;101161.78;6277641;28;20073;-68
2023/12/19 13:01:07;;;;;;;7.78;4.30;;;;;;;7.10;100.00;101165.25;6277363;28;20557;-68
2023/12/19 13:04:11;;;;;;;8.32;4.53;;;;;;;7.08;100.00;101167.03;6269690;28;20053;-69
2023/12/19 13:07:12;;;;;;;8.32;4.35;;;;;;;7.16;100.00;101161.56;6268423;28;20460;-68
2023/12/19 13:10:14;;;;;;;8.27;4.30;;;;;;;7.09;100.00;101159.16;6277030;28;20359;-69
2023/12/19 13:13:16;;;;;;;9.30;4.03;;;;;;;7.10;100.00;101153.03;6276698;28;20056;-69
2023/12/19 13:16:17;;;;;;;7.85;4.72;;;;;;;7.08;100.00;101157.44;6261142;28;20115;-68
2023/12/19 13:19:21;;;;;;;8.55;4.55;;;;;;;7.11;100.00;101138.19;6251462;28;20354;-68
2023/12/19 13:22:25;;;;;;;8.60;4.63;;;;;;;7.17;100.00;101139.75;6260228;28;20084;-68
2023/12/19 13:25:27;;;;;;;7.55;4.25;;;;;;;7.16;100.00;101141.50;6267389;28;20053;-68
2023/12/19 13:28:29;;;;;;;6.95;4.20;;;;;;;7.21;100.00;101138.75;6273019;28;20445;-68
2023/12/19 13:31:31;;;;;;;8.38;4.05;;;;;;;7.18;100.00;101133.66;6259371;28;20049;-68
2023/12/19 13:34:36;;;;;;;7.32;4.10;;;;;;;7.15;100.00;101133.72;6251409;28;20084;-69
2023/12/19 13:37:37;;;;;;;7.50;4.05;;;;;;;7.13;100.00;101125.94;6251201;28;20136;-69
2023/12/19 13:40:39;;;;;;;10.32;4.32;;;;;;;7.15;100.00;101128.50;6251589;28;20057;-75
2023/12/19 13:43:41;;;;;;;6.30;3.40;;;;;;;7.15;100.00;101131.13;6250835;28;20096;-70
2023/12/19 13:46:42;;;;;;;6.38;3.38;;;;;;;7.11;100.00;101120.75;6258253;28;20045;-70
2023/12/19 13:49:46;;;;;;;5.22;3.30;;;;;;;7.13;100.00;101107.66;6250040;28;20441;-70
2023/12/19 13:52:48;;;;;;;5.88;3.42;;;;;;;7.15;100.00;101118.06;6249921;28;20053;-70
2023/12/19 13:55:50;;;;;;;6.57;4.03;;;;;;;7.17;100.00;101096.16;6249860;28;20055;-69
2023/12/19 13:58:51;;;;;;;6.18;3.30;;;;;;;7.12;100.00;101103.31;6249670;28;20049;-70